National Weather Service Raw Text Product

Displaying AFOS PIL: TAFDSM Received: 2018-02-09 10:13 UTC


255 
FTUS43 KDMX 091013 AAB
TAFDSM
TAF AMD
KDSM 091013Z 0910/1006 03015KT 3SM -SN BKN025 OVC040
     FM091200 03010G17KT P6SM BKN050
     FM091800 02011KT P6SM SCT030 BKN100
     FM100300 01010KT P6SM VCSH OVC030=